createdAt,value
2022-09-15T00:00:01.696Z,13.46
2022-09-15T00:02:28.119Z,13.44
2022-09-15T00:04:54.462Z,13.41
2022-09-15T00:07:20.740Z,13.37
2022-09-15T00:09:48.325Z,13.34
2022-09-15T00:12:14.594Z,13.34
2022-09-15T00:14:40.876Z,13.33
2022-09-15T00:17:07.227Z,13.32
2022-09-15T00:19:33.555Z,13.29
2022-09-15T00:21:59.823Z,13.29
2022-09-15T00:24:26.182Z,13.29
2022-09-15T00:26:53.792Z,13.25
2022-09-15T00:29:20.059Z,13.25
2022-09-15T00:31:46.323Z,13.25
2022-09-15T00:34:13.181Z,13.26
2022-09-15T00:36:39.600Z,13.24
2022-09-15T00:39:06.216Z,13.25
2022-09-15T00:41:32.490Z,13.25
2022-09-15T00:44:01.040Z,13.27
2022-09-15T00:46:28.664Z,13.30
2022-09-15T00:48:57.990Z,13.30
2022-09-15T00:51:27.239Z,13.29
2022-09-15T00:53:53.623Z,13.26
2022-09-15T00:56:20.024Z,13.24
2022-09-15T00:58:48.372Z,13.23
2022-09-15T01:01:16.404Z,13.19
2022-09-15T01:03:43.100Z,13.17
2022-09-15T01:06:12.067Z,13.17
2022-09-15T01:08:41.170Z,13.15
2022-09-15T01:11:07.570Z,13.16
2022-09-15T01:13:33.841Z,13.15
2022-09-15T01:18:55.486Z,13.16
2022-09-15T01:21:26.382Z,13.15
2022-09-15T01:24:11.107Z,13.16
2022-09-15T01:26:55.084Z,13.16
2022-09-15T01:29:47.684Z,13.19
2022-09-15T01:32:18.473Z,13.21
2022-09-15T01:34:50.881Z,13.23
2022-09-15T01:37:20.950Z,13.26
2022-09-15T01:39:47.971Z,13.28
2022-09-15T01:42:16.037Z,13.29
2022-09-15T01:44:45.306Z,13.33
2022-09-15T01:47:13.111Z,13.33
2022-09-15T01:49:42.202Z,13.34
2022-09-15T01:52:08.486Z,13.36
2022-09-15T01:54:36.882Z,13.37
2022-09-15T01:57:03.420Z,13.38
2022-09-15T01:59:29.739Z,13.39
2022-09-15T02:01:59.404Z,13.42
2022-09-15T02:04:28.318Z,13.43
2022-09-15T02:06:58.119Z,13.45
2022-09-15T02:09:27.447Z,13.47
2022-09-15T02:11:57.163Z,13.49
2022-09-15T02:14:32.039Z,13.54
2022-09-15T02:16:59.692Z,13.48
2022-09-15T02:19:29.183Z,13.48
2022-09-15T02:21:59.102Z,13.50
2022-09-15T02:24:29.307Z,13.53
2022-09-15T02:26:55.672Z,13.52
2022-09-15T02:29:23.290Z,13.52
2022-09-15T02:31:51.328Z,13.53
2022-09-15T02:34:21.356Z,13.53
2022-09-15T02:36:49.275Z,13.55
2022-09-15T02:39:18.209Z,13.56
2022-09-15T02:41:44.515Z,13.55
2022-09-15T02:44:10.896Z,13.57
2022-09-15T02:46:37.570Z,13.56
2022-09-15T02:49:03.862Z,13.57
2022-09-15T02:51:31.474Z,13.57
2022-09-15T02:53:57.766Z,13.57
2022-09-15T02:56:24.618Z,13.58
2022-09-15T02:58:50.902Z,13.55
2022-09-15T03:01:17.408Z,13.53
2022-09-15T03:03:44.466Z,13.52
2022-09-15T03:06:11.146Z,13.51
2022-09-15T03:08:38.806Z,13.51
2022-09-15T03:11:05.059Z,13.52
2022-09-15T03:13:31.316Z,13.52
2022-09-15T03:15:57.649Z,13.52
2022-09-15T03:18:23.968Z,13.51
2022-09-15T03:20:55.698Z,13.49
2022-09-15T03:23:21.988Z,13.48
2022-09-15T03:25:49.588Z,13.42
2022-09-15T03:28:15.834Z,13.39
2022-09-15T03:30:42.100Z,13.36
2022-09-15T03:33:08.363Z,13.35
2022-09-15T03:35:34.643Z,13.29
2022-09-15T03:38:00.914Z,13.24
2022-09-15T03:40:27.244Z,13.22
2022-09-15T03:42:54.932Z,13.19
2022-09-15T03:45:21.210Z,13.14
2022-09-15T03:47:47.469Z,13.11
2022-09-15T03:50:13.743Z,13.08
2022-09-15T03:52:40.011Z,13.03
2022-09-15T03:55:06.561Z,13.00
2022-09-15T03:57:32.828Z,12.98
2022-09-15T04:00:00.453Z,12.96
2022-09-15T04:02:26.795Z,12.96
2022-09-15T04:04:53.148Z,12.93
2022-09-15T04:07:19.426Z,12.90
2022-09-15T04:09:45.695Z,12.89
2022-09-15T04:12:11.980Z,12.87
2022-09-15T04:14:38.277Z,12.88
2022-09-15T04:17:05.927Z,12.87
2022-09-15T04:19:32.182Z,12.87
2022-09-15T04:21:58.464Z,12.86
2022-09-15T04:24:24.739Z,12.88
2022-09-15T04:26:50.995Z,12.91
2022-09-15T04:29:17.274Z,12.99
2022-09-15T04:31:43.759Z,13.06
2022-09-15T04:34:11.449Z,13.08
2022-09-15T04:36:38.098Z,13.17
2022-09-15T04:39:04.987Z,13.22
2022-09-15T04:41:31.258Z,13.17
2022-09-15T04:43:57.507Z,13.16
2022-09-15T04:46:23.941Z,13.15
2022-09-15T04:48:50.236Z,13.10
2022-09-15T04:51:19.206Z,13.17
2022-09-15T04:53:45.844Z,13.15
2022-09-15T04:56:14.131Z,13.15
2022-09-15T04:58:41.258Z,13.14
2022-09-15T05:01:08.566Z,13.13
2022-09-15T05:03:35.672Z,13.12
2022-09-15T05:06:01.918Z,13.11
2022-09-15T05:08:29.596Z,13.13
2022-09-15T05:10:58.588Z,13.15
2022-09-15T05:13:24.866Z,13.17
2022-09-15T05:15:51.185Z,13.17
2022-09-15T05:18:17.625Z,13.27
2022-09-15T05:20:43.967Z,13.29
2022-09-15T05:23:10.245Z,13.24
2022-09-15T05:25:37.862Z,13.23
2022-09-15T05:28:04.134Z,13.24
2022-09-15T05:30:38.620Z,13.26
2022-09-15T05:33:05.122Z,13.27
2022-09-15T05:35:31.400Z,13.30
2022-09-15T05:37:57.668Z,13.30
2022-09-15T05:40:23.964Z,13.32
2022-09-15T05:42:51.584Z,13.32
2022-09-15T05:45:17.864Z,13.35
2022-09-15T05:47:44.144Z,13.38
2022-09-15T05:50:10.427Z,13.39
2022-09-15T05:52:36.692Z,13.41
2022-09-15T05:55:03.098Z,13.44
2022-09-15T05:57:29.358Z,13.47
2022-09-15T05:59:56.956Z,13.48
2022-09-15T06:02:23.310Z,13.53
2022-09-15T06:04:49.619Z,13.56
2022-09-15T06:07:16.222Z,13.59
2022-09-15T06:09:42.474Z,13.62
2022-09-15T06:12:08.722Z,13.65
2022-09-15T06:14:34.994Z,13.70
2022-09-15T06:17:02.610Z,13.71
2022-09-15T06:19:28.892Z,13.72
2022-09-15T06:21:55.142Z,13.73
2022-09-15T06:24:21.410Z,13.71
2022-09-15T06:26:47.668Z,13.70
2022-09-15T06:29:13.939Z,13.69
2022-09-15T06:31:40.282Z,13.70
2022-09-15T06:34:07.916Z,13.71
2022-09-15T06:36:36.115Z,13.74
2022-09-15T06:39:02.393Z,13.77
2022-09-15T06:41:38.276Z,13.82
2022-09-15T06:44:09.343Z,13.89
2022-09-15T06:46:36.152Z,13.92
2022-09-15T06:49:02.556Z,13.97
2022-09-15T06:51:30.183Z,14.02
2022-09-15T06:53:56.639Z,14.09
2022-09-15T06:56:23.439Z,14.15
2022-09-15T06:58:49.852Z,14.22
2022-09-15T07:01:19.918Z,14.26
2022-09-15T07:03:46.335Z,14.32
2022-09-15T07:06:12.970Z,14.39
2022-09-15T07:08:40.894Z,14.43
2022-09-15T07:11:07.468Z,14.48
2022-09-15T07:13:33.730Z,14.51
2022-09-15T07:16:01.190Z,14.56
2022-09-15T07:18:27.542Z,14.62
2022-09-15T07:20:58.291Z,14.71
2022-09-15T07:23:24.538Z,14.66
2022-09-15T07:25:52.176Z,14.63
2022-09-15T07:28:18.460Z,14.63
2022-09-15T07:30:44.743Z,14.62
2022-09-15T07:33:12.051Z,14.64
2022-09-15T07:35:41.052Z,14.72
2022-09-15T07:38:07.322Z,14.88
2022-09-15T07:40:33.639Z,14.90
2022-09-15T07:43:01.397Z,14.83
2022-09-15T07:45:27.712Z,14.88
2022-09-15T07:47:54.833Z,14.98
2022-09-15T07:50:21.152Z,15.06
2022-09-15T07:52:47.435Z,15.05
2022-09-15T07:55:13.886Z,15.06
2022-09-15T07:57:40.266Z,15.08
2022-09-15T08:00:08.619Z,15.15
2022-09-15T08:02:34.883Z,15.24
2022-09-15T08:05:01.153Z,15.33
2022-09-15T08:07:27.424Z,15.50
2022-09-15T08:09:53.712Z,15.50
2022-09-15T08:12:19.974Z,15.56
2022-09-15T08:14:46.257Z,15.72
2022-09-15T08:17:13.874Z,15.82
2022-09-15T08:19:40.195Z,15.77
2022-09-15T08:22:06.467Z,15.81
2022-09-15T08:24:32.781Z,15.86
2022-09-15T08:26:59.035Z,15.88
2022-09-15T08:29:25.351Z,15.86
2022-09-15T08:31:51.636Z,15.94
2022-09-15T08:34:19.227Z,15.93
2022-09-15T08:36:45.478Z,15.94
2022-09-15T08:39:11.763Z,15.99
2022-09-15T08:41:39.896Z,16.00
2022-09-15T08:44:12.935Z,16.00
2022-09-15T08:46:42.018Z,15.98
2022-09-15T08:49:12.271Z,16.01
2022-09-15T08:51:43.235Z,16.08
2022-09-15T08:54:12.620Z,16.16
2022-09-15T08:56:40.535Z,16.25
2022-09-15T08:59:09.228Z,16.34
2022-09-15T09:01:41.173Z,16.32
2022-09-15T09:04:28.275Z,16.37
2022-09-15T09:07:01.874Z,16.51
2022-09-15T09:09:34.387Z,16.57
2022-09-15T09:12:15.931Z,16.61
2022-09-15T09:14:47.897Z,16.70
2022-09-15T09:17:21.682Z,16.75
2022-09-15T09:19:57.561Z,16.70
2022-09-15T09:22:27.161Z,16.61
2022-09-15T09:24:55.122Z,16.57
2022-09-15T09:27:23.824Z,16.52
2022-09-15T09:29:53.625Z,16.65
2022-09-15T09:32:22.215Z,16.74
2022-09-15T09:34:54.027Z,16.58
2022-09-15T09:37:20.309Z,16.58
2022-09-15T09:39:47.998Z,16.65
2022-09-15T09:42:15.322Z,16.77
2022-09-15T09:44:41.619Z,16.76
2022-09-15T09:47:07.926Z,16.95
2022-09-15T09:49:35.119Z,16.90
2022-09-15T09:52:01.623Z,17.07
2022-09-15T09:54:28.587Z,17.11
2022-09-15T09:56:56.981Z,17.17
2022-09-15T09:59:31.115Z,17.25
2022-09-15T10:02:12.293Z,17.25
2022-09-15T10:04:39.200Z,17.31
2022-09-15T10:07:05.782Z,17.20
2022-09-15T10:09:33.481Z,17.32
2022-09-15T10:12:02.151Z,17.41
2022-09-15T10:14:29.434Z,17.39
2022-09-15T10:17:00.195Z,17.41
2022-09-15T10:19:26.880Z,17.40
2022-09-15T10:21:53.488Z,17.28
2022-09-15T10:24:35.910Z,17.22
2022-09-15T10:27:16.905Z,17.15
2022-09-15T10:29:43.206Z,17.34
2022-09-15T10:32:16.352Z,17.15
2022-09-15T10:34:42.663Z,16.98
2022-09-15T10:37:13.146Z,16.81
2022-09-15T10:39:43.948Z,16.76
2022-09-15T10:42:17.156Z,16.93
2022-09-15T10:44:47.535Z,17.01
2022-09-15T10:47:20.723Z,16.95
2022-09-15T10:49:56.466Z,16.80
2022-09-15T10:52:29.426Z,16.63
2022-09-15T10:55:03.548Z,16.59
2022-09-15T10:57:42.466Z,16.96
2022-09-15T11:00:10.589Z,17.00
2022-09-15T11:02:55.567Z,17.01
2022-09-15T11:05:31.706Z,16.59
2022-09-15T11:08:05.211Z,16.27
2022-09-15T11:10:34.596Z,16.22
2022-09-15T11:13:07.267Z,16.25
2022-09-15T11:15:42.025Z,16.15
2022-09-15T11:18:16.755Z,16.19
2022-09-15T11:20:51.065Z,16.28
2022-09-15T11:23:19.826Z,16.28
2022-09-15T11:25:48.561Z,16.34
2022-09-15T11:28:19.662Z,16.48
2022-09-15T11:30:50.960Z,16.67
2022-09-15T11:33:19.914Z,16.80
2022-09-15T11:35:48.209Z,16.77
2022-09-15T11:38:21.235Z,16.67
2022-09-15T11:40:50.219Z,16.69
2022-09-15T11:43:20.544Z,16.58
2022-09-15T11:45:49.617Z,16.63
2022-09-15T11:48:17.941Z,16.65
2022-09-15T11:50:46.128Z,16.56
2022-09-15T11:53:15.230Z,16.63
2022-09-15T11:55:43.390Z,16.39
2022-09-15T11:58:15.514Z,16.27
2022-09-15T12:00:51.023Z,16.20
2022-09-15T12:03:20.072Z,16.17
2022-09-15T12:05:48.123Z,16.27
2022-09-15T12:08:16.744Z,16.42
2022-09-15T12:10:44.736Z,16.49
2022-09-15T12:13:15.323Z,16.59
2022-09-15T12:15:42.452Z,16.70
2022-09-15T12:18:34.354Z,16.81
2022-09-15T12:21:04.219Z,16.88
2022-09-15T12:23:33.290Z,16.99
2022-09-15T12:26:05.788Z,17.07
2022-09-15T12:28:38.024Z,17.22
2022-09-15T12:31:15.203Z,17.29
2022-09-15T12:33:45.931Z,17.35
2022-09-15T12:36:30.803Z,17.44
2022-09-15T12:38:57.767Z,17.53
2022-09-15T12:41:24.279Z,17.60
2022-09-15T12:43:52.053Z,17.69
2022-09-15T12:46:18.447Z,17.78
2022-09-15T12:48:47.523Z,17.85
2022-09-15T12:51:20.967Z,17.89
2022-09-15T12:53:49.553Z,17.94
2022-09-15T12:56:22.306Z,18.03
2022-09-15T12:58:49.518Z,18.01
2022-09-15T13:01:30.038Z,18.06
2022-09-15T13:04:22.880Z,18.05
2022-09-15T13:07:05.907Z,18.20
2022-09-15T13:09:43.051Z,18.27
2022-09-15T13:12:10.586Z,18.14
2022-09-15T13:14:39.572Z,18.06
2022-09-15T13:17:11.107Z,18.10
2022-09-15T13:19:40.525Z,18.08
2022-09-15T13:22:12.723Z,18.17
2022-09-15T13:24:44.067Z,18.17
2022-09-15T13:27:11.807Z,18.10
2022-09-15T13:29:43.342Z,18.13
2022-09-15T13:32:16.551Z,18.16
2022-09-15T13:35:09.407Z,18.23
2022-09-15T13:38:12.575Z,18.25
2022-09-15T13:40:45.235Z,18.22
2022-09-15T13:43:26.409Z,18.22
2022-09-15T13:45:57.805Z,18.18
2022-09-15T13:48:38.423Z,18.21
2022-09-15T13:51:10.263Z,18.24
2022-09-15T13:53:43.185Z,18.24
2022-09-15T13:56:11.538Z,18.25
2022-09-15T13:59:01.024Z,18.26
2022-09-15T14:01:28.342Z,18.26
2022-09-15T14:03:56.395Z,18.26
2022-09-15T14:06:24.420Z,18.25
2022-09-15T14:08:53.969Z,18.25
2022-09-15T14:11:28.731Z,18.25
2022-09-15T14:13:55.626Z,18.24
2022-09-15T14:16:23.130Z,18.26
2022-09-15T14:18:49.872Z,18.34
2022-09-15T14:21:17.486Z,18.40
2022-09-15T14:23:45.701Z,18.46
2022-09-15T14:26:14.389Z,18.48
2022-09-15T14:28:41.149Z,18.51
2022-09-15T14:31:07.525Z,18.50
2022-09-15T14:33:37.955Z,18.64
2022-09-15T14:36:11.891Z,18.53
2022-09-15T14:38:38.150Z,18.61
2022-09-15T14:41:04.451Z,18.74
2022-09-15T14:43:33.429Z,18.85
2022-09-15T14:46:09.583Z,18.91
2022-09-15T14:48:35.867Z,18.84
2022-09-15T14:51:04.567Z,18.84
2022-09-15T14:53:33.589Z,18.67
2022-09-15T14:56:07.044Z,18.55
2022-09-15T14:58:37.280Z,18.45
2022-09-15T15:01:04.776Z,18.43
2022-09-15T15:03:34.135Z,18.57
2022-09-15T15:06:25.313Z,18.38
2022-09-15T15:08:52.061Z,18.22
2022-09-15T15:11:18.655Z,18.25
2022-09-15T15:13:47.986Z,18.09
2022-09-15T15:16:18.820Z,18.04
2022-09-15T15:18:45.183Z,17.93
2022-09-15T15:21:32.217Z,17.94
2022-09-15T15:23:58.617Z,17.90
2022-09-15T15:26:26.109Z,17.88
2022-09-15T15:28:53.730Z,17.89
2022-09-15T15:31:21.713Z,17.78
2022-09-15T15:33:49.124Z,17.85
2022-09-15T15:36:20.164Z,17.84
2022-09-15T15:38:48.660Z,17.87
2022-09-15T15:41:18.890Z,17.85
2022-09-15T15:43:55.749Z,17.86
2022-09-15T15:46:36.896Z,17.78
2022-09-15T15:49:05.653Z,17.74
2022-09-15T15:51:31.898Z,17.70
2022-09-15T15:53:58.190Z,17.56
2022-09-15T15:56:24.463Z,17.58
2022-09-15T15:58:50.766Z,17.55
2022-09-15T16:01:18.452Z,17.45
2022-09-15T16:03:44.763Z,17.45
2022-09-15T16:06:11.257Z,17.42
2022-09-15T16:08:38.751Z,17.31
2022-09-15T16:11:08.049Z,17.20
2022-09-15T16:13:34.448Z,17.23
2022-09-15T16:16:01.443Z,17.04
2022-09-15T16:18:29.174Z,17.06
2022-09-15T16:20:55.467Z,17.05
2022-09-15T16:23:22.771Z,16.98
2022-09-15T16:25:52.437Z,17.21
2022-09-15T16:28:18.721Z,17.09
2022-09-15T16:30:45.033Z,17.09
2022-09-15T16:33:13.096Z,16.95
2022-09-15T16:35:42.899Z,17.12
2022-09-15T16:38:09.421Z,16.97
2022-09-15T16:40:35.754Z,16.96
2022-09-15T16:43:02.286Z,16.96
2022-09-15T16:45:34.049Z,16.86
2022-09-15T16:48:03.428Z,16.85
2022-09-15T16:50:30.142Z,16.80
2022-09-15T16:52:58.240Z,16.80
2022-09-15T16:55:31.244Z,16.78
2022-09-15T16:57:57.651Z,16.74
2022-09-15T17:00:23.998Z,16.73
2022-09-15T17:02:50.318Z,16.72
2022-09-15T17:05:19.747Z,16.70
2022-09-15T17:07:46.035Z,16.69
2022-09-15T17:10:13.771Z,16.66
2022-09-15T17:12:40.070Z,16.67
2022-09-15T17:15:17.591Z,16.59
2022-09-15T17:17:43.856Z,16.46
2022-09-15T17:20:10.133Z,16.44
2022-09-15T17:22:36.378Z,16.41
2022-09-15T17:25:04.936Z,16.31
2022-09-15T17:27:32.546Z,16.43
2022-09-15T17:29:58.819Z,16.37
2022-09-15T17:32:25.098Z,16.38
2022-09-15T17:34:51.551Z,16.34
2022-09-15T17:37:17.999Z,16.26
2022-09-15T17:39:44.276Z,16.19
2022-09-15T17:42:10.543Z,16.05
2022-09-15T17:44:38.127Z,16.02
2022-09-15T17:47:04.466Z,15.98
2022-09-15T17:49:30.728Z,15.78
2022-09-15T17:51:57.003Z,15.72
2022-09-15T17:54:23.268Z,15.79
2022-09-15T17:56:49.550Z,15.66
2022-09-15T17:59:16.392Z,15.57
2022-09-15T18:01:44.134Z,15.52
2022-09-15T18:04:11.120Z,15.50
2022-09-15T18:06:37.598Z,15.48
2022-09-15T18:09:04.559Z,15.48
2022-09-15T18:11:30.869Z,15.44
2022-09-15T18:13:57.321Z,15.32
2022-09-15T18:16:23.670Z,15.28
2022-09-15T18:18:51.316Z,15.34
2022-09-15T18:21:22.519Z,15.21
2022-09-15T18:23:48.793Z,15.30
2022-09-15T18:26:15.115Z,15.29
2022-09-15T18:28:41.385Z,15.23
2022-09-15T18:31:09.340Z,15.30
2022-09-15T18:33:35.618Z,15.19
2022-09-15T18:36:05.823Z,15.33
2022-09-15T18:38:32.128Z,15.36
2022-09-15T18:40:58.411Z,15.24
2022-09-15T18:43:25.362Z,15.33
2022-09-15T18:45:51.675Z,15.40
2022-09-15T18:48:18.009Z,15.42
2022-09-15T18:50:44.660Z,15.44
2022-09-15T18:53:12.706Z,15.47
2022-09-15T18:55:40.064Z,15.34
2022-09-15T18:58:06.319Z,15.25
2022-09-15T19:00:32.600Z,15.24
2022-09-15T19:02:59.702Z,15.15
2022-09-15T19:05:26.455Z,15.27
2022-09-15T19:07:52.869Z,15.07
2022-09-15T19:10:20.723Z,15.02
2022-09-15T19:12:47.031Z,14.92
2022-09-15T19:15:14.203Z,14.90
2022-09-15T19:17:40.836Z,14.98
2022-09-15T19:20:08.350Z,14.87
2022-09-15T19:22:35.026Z,14.73
2022-09-15T19:25:01.312Z,14.61
2022-09-15T19:27:28.918Z,14.52
2022-09-15T19:29:55.186Z,14.41
2022-09-15T19:32:21.827Z,14.32
2022-09-15T19:34:48.638Z,14.27
2022-09-15T19:37:18.695Z,14.25
2022-09-15T19:39:45.347Z,14.15
2022-09-15T19:42:12.143Z,14.14
2022-09-15T19:44:40.338Z,14.05
2022-09-15T19:47:06.608Z,14.03
2022-09-15T19:49:32.878Z,13.98
2022-09-15T19:51:59.142Z,13.95
2022-09-15T19:54:26.522Z,13.95
2022-09-15T19:56:52.855Z,14.08
2022-09-15T19:59:19.261Z,13.96
2022-09-15T20:01:47.037Z,14.00
2022-09-15T20:06:57.176Z,14.01
2022-09-15T20:09:23.436Z,14.06
2022-09-15T20:11:49.669Z,13.95
2022-09-15T20:14:15.902Z,13.87
2022-09-15T20:16:42.236Z,13.93
2022-09-15T20:19:09.982Z,13.78
2022-09-15T20:21:52.999Z,13.69
2022-09-15T20:24:20.223Z,13.67
2022-09-15T20:26:46.535Z,13.54
2022-09-15T20:29:12.820Z,13.51
2022-09-15T20:31:39.098Z,13.64
2022-09-15T20:34:05.335Z,13.60
2022-09-15T20:36:34.034Z,13.59
2022-09-15T20:39:01.029Z,13.70
2022-09-15T20:41:27.770Z,13.65
2022-09-15T20:43:54.200Z,13.55
2022-09-15T20:46:21.674Z,13.54
2022-09-15T20:48:48.203Z,13.54
2022-09-15T20:51:15.341Z,13.46
2022-09-15T20:53:43.863Z,13.43
2022-09-15T20:56:10.522Z,13.35
2022-09-15T20:58:37.079Z,13.25
2022-09-15T21:01:04.829Z,13.23
2022-09-15T21:03:31.467Z,13.22
2022-09-15T21:06:01.455Z,13.24
2022-09-15T21:08:27.739Z,13.27
2022-09-15T21:10:55.647Z,13.25
2022-09-15T21:13:22.110Z,13.33
2022-09-15T21:15:54.763Z,13.47
2022-09-15T21:18:21.062Z,13.50
2022-09-15T21:20:53.365Z,13.54
2022-09-15T21:23:19.624Z,13.73
2022-09-15T21:25:45.896Z,13.69
2022-09-15T21:28:13.517Z,13.74
2022-09-15T21:30:39.773Z,13.76
2022-09-15T21:33:06.054Z,13.71
2022-09-15T21:35:34.028Z,13.48
2022-09-15T21:38:00.822Z,13.41
2022-09-15T21:40:27.216Z,13.32
2022-09-15T21:42:53.495Z,13.27
2022-09-15T21:45:21.162Z,13.22
2022-09-15T21:47:47.442Z,13.19
2022-09-15T21:50:13.827Z,13.18
2022-09-15T21:52:40.385Z,13.17
2022-09-15T21:55:06.883Z,13.17
2022-09-15T21:57:33.164Z,13.16
2022-09-15T21:59:59.426Z,13.16
2022-09-15T22:02:27.089Z,13.16
2022-09-15T22:04:53.388Z,13.11
2022-09-15T22:07:19.685Z,13.14
2022-09-15T22:09:46.437Z,13.14
2022-09-15T22:12:12.729Z,13.15
2022-09-15T22:14:38.996Z,13.12
2022-09-15T22:17:05.313Z,13.12
2022-09-15T22:19:32.913Z,13.15
2022-09-15T22:21:59.199Z,13.19
2022-09-15T22:24:25.501Z,13.13
2022-09-15T22:26:51.776Z,13.13
2022-09-15T22:29:18.065Z,13.16
2022-09-15T22:31:44.359Z,13.19
2022-09-15T22:34:10.661Z,13.10
2022-09-15T22:36:38.282Z,13.08
2022-09-15T22:39:05.263Z,13.07
2022-09-15T22:41:32.588Z,13.05
2022-09-15T22:43:58.870Z,13.03
2022-09-15T22:46:25.491Z,13.03
2022-09-15T22:48:51.773Z,13.02
2022-09-15T22:51:18.060Z,12.99
2022-09-15T22:53:45.685Z,12.93
2022-09-15T22:56:12.955Z,12.87
2022-09-15T22:58:41.430Z,12.79
2022-09-15T23:01:08.734Z,12.74
2022-09-15T23:03:35.042Z,12.71
2022-09-15T23:06:02.035Z,12.63
2022-09-15T23:08:28.413Z,12.58
2022-09-15T23:11:01.430Z,12.54
2022-09-15T23:13:27.705Z,12.48
2022-09-15T23:15:54.017Z,12.40
2022-09-15T23:18:20.327Z,12.35
2022-09-15T23:20:46.599Z,12.27
2022-09-15T23:23:12.899Z,12.18
2022-09-15T23:25:39.170Z,12.17
2022-09-15T23:28:06.804Z,12.15
2022-09-15T23:30:33.076Z,12.11
2022-09-15T23:32:59.354Z,12.10
2022-09-15T23:35:25.649Z,12.09
2022-09-15T23:37:51.915Z,12.10
2022-09-15T23:40:18.213Z,12.11
2022-09-15T23:42:44.531Z,12.11
2022-09-15T23:45:12.137Z,12.12
2022-09-15T23:47:38.419Z,12.10
2022-09-15T23:50:05.123Z,12.10
2022-09-15T23:52:31.408Z,12.12
2022-09-15T23:54:57.673Z,12.12
2022-09-15T23:57:23.971Z,12.16
2022-09-15T23:59:50.244Z,12.18
